Time;durP1;ratioP1;P1;durP2;ratioP2;P2;SDS_P1;SDS_P2;PMS_P1;PMS_P2;Temp;Humidity;BMP_temperature;BMP_pressure;BME280_temperature;BME280_humidity;BME280_pressure;Samples;Min_cycle;Max_cycle;Signal;HPM_P1;HPM_P2
2022/10/28 00:00:34;;;;;;;6.87;3.90;;;19.50;84.10;;;;;;5100025;28;20204;-44
2022/10/28 00:03:00;;;;;;;6.20;3.90;;;19.50;84.20;;;;;;5099885;28;20187;-48
2022/10/28 00:05:27;;;;;;;5.53;3.50;;;19.50;84.40;;;;;;5099434;28;20192;-47
2022/10/28 00:07:53;;;;;;;4.27;3.87;;;19.40;84.30;;;;;;5099624;28;20422;-48
2022/10/28 00:10:18;;;;;;;5.70;3.93;;;19.40;84.50;;;;;;5099353;28;20437;-45
2022/10/28 00:12:44;;;;;;;6.37;3.47;;;19.40;84.60;;;;;;5099164;28;20482;-47
2022/10/28 00:15:09;;;;;;;4.60;3.73;;;19.40;84.80;;;;;;5099305;28;20188;-44
2022/10/28 00:17:35;;;;;;;6.17;3.40;;;19.40;85.00;;;;;;5081986;28;20202;-45
2022/10/28 00:20:00;;;;;;;5.43;3.70;;;19.40;85.10;;;;;;5081516;28;20589;-46
2022/10/28 00:22:26;;;;;;;4.40;3.50;;;19.40;85.20;;;;;;5099189;28;20209;-47
2022/10/28 00:24:52;;;;;;;4.70;3.43;;;19.40;85.20;;;;;;5099183;28;20204;-46
2022/10/28 00:27:18;;;;;;;4.93;3.63;;;19.30;85.20;;;;;;5099354;28;20503;-44
2022/10/28 00:29:43;;;;;;;6.17;3.43;;;19.30;85.30;;;;;;5099836;28;20197;-45
2022/10/28 00:32:09;;;;;;;7.23;4.23;;;19.30;85.50;;;;;;5081759;28;20235;-45
2022/10/28 00:34:35;;;;;;;3.97;3.33;;;19.30;85.60;;;;;;5098129;28;20188;-45
2022/10/28 00:37:01;;;;;;;5.50;3.87;;;19.30;85.70;;;;;;5098832;28;20281;-49
2022/10/28 00:39:26;;;;;;;5.23;3.90;;;19.30;85.80;;;;;;5098365;28;20457;-44
2022/10/28 00:41:54;;;;;;;4.93;3.53;;;19.30;86.00;;;;;;5099117;28;20206;-44
2022/10/28 00:44:41;;;;;;;4.90;3.40;;;19.30;86.20;;;;;;5081227;28;20192;-46
2022/10/28 00:47:18;;;;;;;5.37;4.03;;;19.30;86.30;;;;;;5098863;28;20438;-44
2022/10/28 00:49:45;;;;;;;5.13;3.70;;;19.30;86.50;;;;;;5080109;28;20439;-43
2022/10/28 00:52:17;;;;;;;8.53;4.10;;;19.30;86.60;;;;;;5079393;28;20473;-45
2022/10/28 00:54:44;;;;;;;4.73;3.63;;;19.30;86.70;;;;;;5079874;28;20413;-47
2022/10/28 00:57:17;;;;;;;3.83;2.93;;;19.20;86.70;;;;;;5108589;27;1393519;-46
2022/10/28 00:59:46;;;;;;;6.03;3.60;;;19.20;86.70;;;;;;5135734;28;20194;-48
2022/10/28 01:02:11;;;;;;;5.50;3.60;;;19.20;86.80;;;;;;5117734;28;20649;-44
2022/10/28 01:04:38;;;;;;;5.50;3.77;;;19.20;86.90;;;;;;5135159;28;20529;-43
2022/10/28 01:07:04;;;;;;;6.57;3.57;;;19.20;87.00;;;;;;5136164;28;20520;-43
2022/10/28 01:09:30;;;;;;;5.13;3.60;;;19.20;87.40;;;;;;5135609;28;20415;-45
2022/10/28 01:12:20;;;;;;;6.83;3.80;;;19.10;87.30;;;;;;5135772;28;20482;-43
2022/10/28 01:15:23;;;;;;;5.90;4.40;;;19.20;87.50;;;;;;5136272;28;20181;-42
2022/10/28 01:17:55;;;;;;;5.23;4.00;;;19.10;87.50;;;;;;5135943;28;20793;-42
2022/10/28 01:20:43;;;;;;;4.83;3.50;;;19.10;87.70;;;;;;5135580;28;20415;-44
2022/10/28 01:23:24;;;;;;;4.37;3.80;;;19.10;87.60;;;;;;5117722;28;20700;-45
2022/10/28 01:25:58;;;;;;;6.93;3.83;;;19.10;87.70;;;;;;5135161;28;20436;-45
2022/10/28 01:28:48;;;;;;;7.13;3.63;;;19.10;87.90;;;;;;5134476;28;20410;-45
2022/10/28 01:31:22;;;;;;;7.00;5.00;;;19.00;87.90;;;;;;5135557;28;20400;-43
2022/10/28 01:34:12;;;;;;;4.87;3.20;;;19.00;88.00;;;;;;5135478;28;20404;-43
2022/10/28 01:36:46;;;;;;;5.60;4.40;;;19.00;88.00;;;;;;5116554;28;20917;-43
2022/10/28 01:39:33;;;;;;;7.00;3.70;;;19.00;88.10;;;;;;5116405;28;20424;-45
2022/10/28 01:42:28;;;;;;;7.03;3.77;;;19.00;88.10;;;;;;5116858;28;20675;-44
2022/10/28 01:44:57;;;;;;;10.93;5.30;;;19.00;88.10;;;;;;5112185;28;20513;-43
2022/10/28 01:47:36;;;;;;;6.27;3.90;;;19.00;88.00;;;;;;5135323;28;20713;-44
2022/10/28 01:50:17;;;;;;;6.43;3.70;;;19.00;88.10;;;;;;5114334;28;20520;-43
2022/10/28 01:52:43;;;;;;;7.37;4.40;;;19.00;88.20;;;;;;5131257;28;20495;-42
2022/10/28 01:55:40;;;;;;;6.27;3.70;;;19.00;88.20;;;;;;5116828;27;20454;-47
2022/10/28 01:58:08;;;;;;;7.13;4.00;;;19.00;88.30;;;;;;5114833;28;20509;-43
2022/10/28 02:00:35;;;;;;;3.90;3.30;;;19.00;88.40;;;;;;5116652;28;20433;-44
2022/10/28 02:03:00;;;;;;;5.70;3.50;;;19.00;88.40;;;;;;5116403;28;20757;-45
2022/10/28 02:05:40;;;;;;;4.50;3.40;;;19.00;88.50;;;;;;5134874;28;20493;-46
2022/10/28 02:08:09;;;;;;;4.27;3.30;;;19.00;88.50;;;;;;5123827;28;20182;-46
2022/10/28 02:10:41;;;;;;;4.63;4.10;;;18.90;88.50;;;;;;5121034;28;20421;-50
2022/10/28 02:13:10;;;;;;;4.87;3.40;;;18.90;88.60;;;;;;5102538;28;20447;-45
2022/10/28 02:16:01;;;;;;;9.50;4.10;;;18.90;88.70;;;;;;5103120;28;20501;-45
2022/10/28 02:18:52;;;;;;;5.57;4.30;;;18.90;88.70;;;;;;5102822;28;20709;-47
2022/10/28 02:21:26;;;;;;;6.13;3.80;;;18.90;88.80;;;;;;5103446;28;20828;-44
2022/10/28 02:24:08;;;;;;;6.83;3.37;;;18.90;88.90;;;;;;5102149;28;20469;-43
2022/10/28 02:26:38;;;;;;;3.80;3.50;;;18.90;88.90;;;;;;5119641;28;20438;-42
2022/10/28 02:29:25;;;;;;;4.10;3.53;;;18.90;88.90;;;;;;5120722;28;20417;-42
2022/10/28 02:31:56;;;;;;;5.47;3.63;;;18.90;89.10;;;;;;5120182;28;20442;-43
2022/10/28 02:34:30;;;;;;;8.03;4.20;;;18.80;89.00;;;;;;5102281;28;20695;-47
2022/10/28 02:36:57;;;;;;;5.73;3.67;;;18.80;89.10;;;;;;5102677;28;20906;-45
2022/10/28 02:39:31;;;;;;;4.90;3.67;;;18.80;89.00;;;;;;5101908;28;20447;-42
2022/10/28 02:42:07;;;;;;;4.50;3.60;;;18.80;89.00;;;;;;5100204;28;20453;-45
2022/10/28 02:44:36;;;;;;;4.90;3.90;;;18.80;89.00;;;;;;5102020;28;20657;-44
2022/10/28 02:47:07;;;;;;;5.93;4.00;;;18.80;89.10;;;;;;5102457;28;20715;-43
2022/10/28 02:49:36;;;;;;;5.63;3.87;;;18.80;89.20;;;;;;5101964;28;20691;-42
2022/10/28 02:52:04;;;;;;;4.83;3.40;;;18.80;89.10;;;;;;5102140;28;20487;-43
2022/10/28 02:54:45;;;;;;;5.30;3.10;;;18.80;89.20;;;;;;5120304;28;20843;-46
2022/10/28 02:57:16;;;;;;;5.00;3.80;;;18.80;89.10;;;;;;5102208;28;20583;-43
2022/10/28 02:59:42;;;;;;;7.23;3.60;;;18.80;89.20;;;;;;5102583;28;20422;-45
2022/10/28 03:02:07;;;;;;;4.20;3.50;;;18.80;89.20;;;;;;5119868;28;20452;-46
2022/10/28 03:04:33;;;;;;;5.23;3.97;;;18.80;89.10;;;;;;5119662;28;20184;-42
2022/10/28 03:06:59;;;;;;;6.00;3.70;;;18.80;89.10;;;;;;5119655;28;20180;-44
2022/10/28 03:09:24;;;;;;;5.20;3.43;;;18.80;89.10;;;;;;5119562;28;20177;-46
2022/10/28 03:11:50;;;;;;;6.23;4.07;;;18.80;89.10;;;;;;5119402;28;20174;-44
2022/10/28 03:14:15;;;;;;;8.63;3.50;;;18.80;89.20;;;;;;5118938;28;20190;-46
2022/10/28 03:16:41;;;;;;;6.43;3.50;;;18.80;88.80;;;;;;5119895;28;20305;-45
2022/10/28 03:19:07;;;;;;;9.10;3.83;;;18.70;87.60;;;;;;5118621;28;20190;-44
2022/10/28 03:21:32;;;;;;;4.37;3.70;;;18.60;87.30;;;;;;5101544;28;20453;-45
2022/10/28 03:23:58;;;;;;;4.97;3.50;;;18.40;87.20;;;;;;5119511;28;20470;-43
2022/10/28 03:26:24;;;;;;;6.43;4.23;;;18.30;87.30;;;;;;5100504;28;20185;-43
2022/10/28 03:28:49;;;;;;;6.03;3.77;;;18.10;87.30;;;;;;5119258;28;20245;-45
2022/10/28 03:31:15;;;;;;;9.43;4.23;;;18.00;87.60;;;;;;5119257;28;20183;-44
2022/10/28 03:33:41;;;;;;;8.47;3.90;;;17.90;87.90;;;;;;5118588;28;20177;-44
2022/10/28 03:36:07;;;;;;;4.70;4.17;;;17.80;88.10;;;;;;5118877;28;20469;-46
2022/10/28 03:38:32;;;;;;;5.03;3.93;;;17.70;88.30;;;;;;5118674;28;20237;-45
2022/10/28 03:40:58;;;;;;;7.80;4.40;;;17.60;88.50;;;;;;5118624;28;20469;-42
2022/10/28 03:43:24;;;;;;;5.90;3.80;;;17.50;88.70;;;;;;5118911;28;20231;-43
2022/10/28 03:45:49;;;;;;;4.90;3.90;;;17.50;88.90;;;;;;5118587;28;20196;-44
2022/10/28 03:48:15;;;;;;;6.70;4.03;;;17.40;89.00;;;;;;5118647;28;20181;-43
2022/10/28 03:50:40;;;;;;;8.27;3.97;;;17.40;89.20;;;;;;5118009;28;20189;-44
2022/10/28 03:53:06;;;;;;;5.00;4.30;;;17.30;90.00;;;;;;5117310;28;20191;-44
2022/10/28 03:55:32;;;;;;;9.27;4.57;;;17.30;89.50;;;;;;5118602;28;20678;-42
2022/10/28 03:58:01;;;;;;;5.07;4.00;;;17.30;89.80;;;;;;5117603;28;20481;-45
2022/10/28 04:00:27;;;;;;;6.43;3.67;;;17.20;89.90;;;;;;5099601;28;20188;-42
2022/10/28 04:02:53;;;;;;;6.50;4.20;;;17.20;90.00;;;;;;5117200;28;20723;-45
2022/10/28 04:05:19;;;;;;;4.83;3.83;;;17.20;90.10;;;;;;5116555;28;20430;-43
2022/10/28 04:07:45;;;;;;;7.63;4.30;;;17.20;90.20;;;;;;5116872;28;20180;-42
2022/10/28 04:10:12;;;;;;;5.17;4.03;;;17.20;90.10;;;;;;5098384;28;20554;-43
2022/10/28 04:12:37;;;;;;;5.00;3.57;;;17.10;90.00;;;;;;5117097;28;20423;-42
2022/10/28 04:15:03;;;;;;;9.77;4.17;;;17.10;90.00;;;;;;5118219;28;20414;-45
2022/10/28 04:17:29;;;;;;;7.03;4.07;;;17.10;90.00;;;;;;5118290;28;20188;-48
2022/10/28 04:19:55;;;;;;;6.00;4.57;;;17.10;90.00;;;;;;5115393;28;20667;-44
2022/10/28 04:22:20;;;;;;;5.60;3.20;;;17.10;89.80;;;;;;5113726;28;20501;-43
2022/10/28 04:24:46;;;;;;;4.87;3.40;;;17.20;89.70;;;;;;5114626;28;20267;-45
2022/10/28 04:27:12;;;;;;;6.60;3.90;;;17.20;89.40;;;;;;5112136;28;20199;-43
2022/10/28 04:29:37;;;;;;;6.53;3.50;;;17.20;89.10;;;;;;5096045;28;20177;-44
2022/10/28 04:32:03;;;;;;;5.63;3.00;;;17.20;88.80;;;;;;5110077;28;20199;-44
2022/10/28 04:34:28;;;;;;;5.67;3.63;;;17.20;88.70;;;;;;5112227;28;20188;-45
2022/10/28 04:36:54;;;;;;;7.20;3.83;;;17.20;88.30;;;;;;5117346;28;20413;-42
2022/10/28 04:39:20;;;;;;;4.90;3.40;;;17.20;88.00;;;;;;5116879;28;20712;-44
2022/10/28 04:41:46;;;;;;;4.80;3.57;;;17.20;87.80;;;;;;5115973;28;20295;-44
2022/10/28 04:44:12;;;;;;;5.20;3.10;;;17.30;87.70;;;;;;5095821;28;20189;-43
2022/10/28 04:46:37;;;;;;;7.40;3.90;;;17.30;87.50;;;;;;5098691;28;20863;-42
2022/10/28 04:49:03;;;;;;;5.73;3.40;;;17.30;87.30;;;;;;5116840;28;20178;-43
2022/10/28 04:51:29;;;;;;;5.60;3.47;;;17.30;87.20;;;;;;5113924;28;20176;-46
2022/10/28 04:53:54;;;;;;;7.83;3.47;;;17.30;87.00;;;;;;5098302;28;20292;-44
2022/10/28 04:56:20;;;;;;;4.13;2.77;;;17.30;86.70;;;;;;5113222;28;20335;-45
2022/10/28 04:58:47;;;;;;;7.60;3.30;;;17.30;87.30;;;;;;5104957;28;20250;-46
2022/10/28 05:01:12;;;;;;;5.17;2.93;;;17.30;86.50;;;;;;5116169;28;20176;-43
2022/10/28 05:03:38;;;;;;;5.30;3.53;;;17.30;86.40;;;;;;5115085;28;20410;-45
2022/10/28 05:06:03;;;;;;;5.00;3.47;;;17.30;86.20;;;;;;5096595;28;20188;-42
2022/10/28 05:08:29;;;;;;;8.27;3.20;;;17.30;86.00;;;;;;5097238;28;20173;-42
2022/10/28 05:10:55;;;;;;;6.67;3.93;;;17.30;85.80;;;;;;5111704;28;20177;-43
2022/10/28 05:13:25;;;;;;;5.73;2.93;;;17.30;85.80;;;;;;5095444;28;20180;-43
2022/10/28 05:15:52;;;;;;;6.47;3.40;;;17.30;85.80;;;;;;5114223;28;20206;-44
2022/10/28 05:18:18;;;;;;;3.90;2.77;;;17.30;85.80;;;;;;5113460;28;20412;-47
2022/10/28 05:20:45;;;;;;;6.13;2.97;;;17.20;85.80;;;;;;5103150;28;20438;-45
2022/10/28 05:23:10;;;;;;;6.77;2.90;;;17.20;85.90;;;;;;5094013;28;20257;-44
2022/10/28 05:25:36;;;;;;;4.00;3.30;;;17.20;86.00;;;;;;5093279;28;20965;-45
2022/10/28 05:28:01;;;;;;;6.93;4.37;;;17.10;86.00;;;;;;5094193;28;20199;-47
2022/10/28 05:30:27;;;;;;;7.00;3.30;;;17.10;86.10;;;;;;5094544;28;20188;-43
2022/10/28 05:33:03;;;;;;;5.20;3.10;;;17.10;86.20;;;;;;5091611;28;20215;-43
2022/10/28 05:35:29;;;;;;;5.10;3.30;;;17.10;86.30;;;;;;5097151;28;20727;-43
2022/10/28 05:37:54;;;;;;;5.80;3.53;;;17.00;86.20;;;;;;5115073;28;20742;-43
2022/10/28 05:40:20;;;;;;;3.87;3.10;;;17.00;86.10;;;;;;5112934;28;20422;-46
2022/10/28 05:42:46;;;;;;;4.97;3.50;;;17.00;86.00;;;;;;5115594;28;20195;-49
2022/10/28 05:45:12;;;;;;;7.30;3.27;;;17.00;85.90;;;;;;5118160;28;20608;-45
2022/10/28 05:47:44;;;;;;;5.00;3.70;;;17.00;85.90;;;;;;5117583;28;20185;-47
2022/10/28 05:50:12;;;;;;;4.13;2.73;;;17.00;85.90;;;;;;5117724;28;20421;-43
2022/10/28 05:52:37;;;;;;;4.60;3.10;;;17.00;85.80;;;;;;5117867;28;20422;-44
2022/10/28 05:55:03;;;;;;;4.40;3.30;;;16.90;85.70;;;;;;5118953;28;20900;-42
2022/10/28 05:57:29;;;;;;;5.17;3.00;;;16.90;85.70;;;;;;5119592;28;20196;-44
2022/10/28 05:59:55;;;;;;;4.03;3.17;;;16.90;85.60;;;;;;5102305;28;20446;-43
2022/10/28 06:02:21;;;;;;;6.37;3.27;;;16.90;85.50;;;;;;5120208;28;20461;-43
2022/10/28 06:04:46;;;;;;;8.33;4.10;;;16.90;85.50;;;;;;5119667;28;20654;-43
2022/10/28 06:07:12;;;;;;;4.57;3.10;;;16.90;85.30;;;;;;5120308;28;20186;-46
2022/10/28 06:09:37;;;;;;;5.10;3.00;;;16.90;85.30;;;;;;5119467;28;20185;-47
2022/10/28 06:12:05;;;;;;;4.20;3.23;;;16.90;85.20;;;;;;5119528;28;20178;-44
2022/10/28 06:14:31;;;;;;;5.50;3.13;;;16.90;85.10;;;;;;5117540;28;20219;-44
2022/10/28 06:16:56;;;;;;;6.50;3.20;;;16.90;85.00;;;;;;5117657;28;20489;-42
2022/10/28 06:19:22;;;;;;;9.57;2.83;;;16.90;84.80;;;;;;5118093;28;20273;-46
2022/10/28 06:21:47;;;;;;;6.47;3.27;;;16.90;84.60;;;;;;5117227;28;20179;-46
2022/10/28 06:24:14;;;;;;;3.30;2.40;;;16.90;84.80;;;;;;5116678;28;20285;-44
2022/10/28 06:26:40;;;;;;;4.60;3.40;;;17.00;84.50;;;;;;5096349;28;20187;-44
2022/10/28 06:29:05;;;;;;;6.40;3.37;;;17.00;84.30;;;;;;5115358;28;20425;-46
2022/10/28 06:31:32;;;;;;;6.80;3.23;;;17.00;84.20;;;;;;5116127;28;20565;-43
2022/10/28 06:33:58;;;;;;;7.00;3.30;;;17.00;84.10;;;;;;5116511;28;20208;-46
2022/10/28 06:36:23;;;;;;;4.30;3.00;;;17.00;83.90;;;;;;5115458;28;20453;-45
2022/10/28 06:38:52;;;;;;;4.43;2.97;;;17.00;83.80;;;;;;5099389;28;20185;-42
2022/10/28 06:41:17;;;;;;;4.80;3.00;;;17.10;83.80;;;;;;5117479;28;20175;-45
2022/10/28 06:43:43;;;;;;;4.13;2.93;;;17.10;83.70;;;;;;5117352;28;20843;-46
2022/10/28 06:46:08;;;;;;;5.80;3.17;;;17.10;83.40;;;;;;5116391;28;20191;-44
2022/10/28 06:48:34;;;;;;;4.10;2.90;;;17.20;83.40;;;;;;5114121;28;20474;-43
2022/10/28 06:51:00;;;;;;;8.63;3.13;;;17.20;83.10;;;;;;5114897;28;20180;-45
2022/10/28 06:53:25;;;;;;;5.53;3.20;;;17.30;83.00;;;;;;5116708;28;20277;-47
2022/10/28 06:55:52;;;;;;;4.57;2.90;;;17.30;82.90;;;;;;5117567;28;20230;-44
2022/10/28 06:58:18;;;;;;;4.40;2.80;;;17.40;82.90;;;;;;5100572;28;20266;-43
2022/10/28 07:00:43;;;;;;;6.10;2.53;;;17.40;82.80;;;;;;5118637;28;20510;-44
2022/10/28 07:03:10;;;;;;;5.27;3.17;;;17.50;82.80;;;;;;5118538;28;20564;-43
2022/10/28 07:05:35;;;;;;;6.73;3.07;;;17.50;82.60;;;;;;5117884;28;20176;-42
2022/10/28 07:08:01;;;;;;;4.00;3.00;;;17.60;82.60;;;;;;5117467;28;20517;-48
2022/10/28 07:10:26;;;;;;;5.90;3.10;;;17.60;82.40;;;;;;5117148;28;20276;-44
2022/10/28 07:12:52;;;;;;;3.73;2.80;;;17.70;82.30;;;;;;5117228;28;20187;-43
2022/10/28 07:15:18;;;;;;;5.77;3.50;;;17.70;82.20;;;;;;5118671;28;20178;-43
2022/10/28 07:17:43;;;;;;;4.53;3.07;;;17.80;82.10;;;;;;5118400;28;20181;-44
2022/10/28 07:20:10;;;;;;;4.60;2.80;;;17.80;81.90;;;;;;5118106;28;20420;-43
2022/10/28 07:22:35;;;;;;;5.53;3.00;;;17.80;82.50;;;;;;5117230;28;20445;-45
2022/10/28 07:25:01;;;;;;;7.00;4.03;;;17.90;81.70;;;;;;5117161;28;20496;-43
2022/10/28 07:27:26;;;;;;;6.20;3.10;;;18.00;81.70;;;;;;5099125;28;20230;-44
2022/10/28 07:29:52;;;;;;;4.47;2.93;;;18.00;81.50;;;;;;5116998;28;20745;-43
2022/10/28 07:32:18;;;;;;;5.03;2.97;;;18.10;81.50;;;;;;5115409;28;20194;-44
2022/10/28 07:34:43;;;;;;;4.17;2.83;;;18.10;81.20;;;;;;5116970;28;20171;-43
2022/10/28 07:37:11;;;;;;;9.47;4.13;;;18.20;81.20;;;;;;5115476;28;20257;-44
2022/10/28 07:39:37;;;;;;;5.40;2.90;;;18.30;81.10;;;;;;5117822;28;20305;-45
2022/10/28 07:42:03;;;;;;;5.40;2.80;;;18.30;81.10;;;;;;5115092;28;20498;-46
2022/10/28 07:44:28;;;;;;;5.70;3.23;;;18.30;81.00;;;;;;5115832;28;20511;-43
2022/10/28 07:46:54;;;;;;;5.17;2.83;;;18.40;81.00;;;;;;5116486;28;20558;-43
2022/10/28 07:49:20;;;;;;;4.90;2.97;;;18.40;80.90;;;;;;5114954;28;20173;-43
2022/10/28 07:51:46;;;;;;;4.70;3.00;;;18.50;80.80;;;;;;5116055;28;20176;-43
2022/10/28 07:54:12;;;;;;;3.63;2.57;;;18.50;80.40;;;;;;5100339;28;20176;-45
2022/10/28 07:56:38;;;;;;;4.10;3.00;;;18.50;80.10;;;;;;5116188;28;20478;-45
2022/10/28 07:59:04;;;;;;;5.03;2.70;;;18.60;80.00;;;;;;5117175;28;20168;-44
2022/10/28 08:01:30;;;;;;;4.40;2.40;;;18.60;79.70;;;;;;5115673;28;20421;-46
2022/10/28 08:03:56;;;;;;;3.90;2.60;;;18.60;79.20;;;;;;5116165;28;20637;-44
2022/10/28 08:06:21;;;;;;;3.87;2.60;;;18.70;79.00;;;;;;5115597;28;20173;-46
2022/10/28 08:08:51;;;;;;;3.70;2.20;;;18.70;78.70;;;;;;5114925;28;20691;-43
2022/10/28 08:11:18;;;;;;;5.47;2.97;;;18.80;78.70;;;;;;5105490;28;20244;-44
2022/10/28 08:13:45;;;;;;;4.93;2.60;;;18.80;78.40;;;;;;5116274;28;20775;-43
2022/10/28 08:16:11;;;;;;;6.67;3.20;;;18.80;78.30;;;;;;5115616;28;20472;-44
2022/10/28 08:18:38;;;;;;;6.70;2.73;;;18.80;78.40;;;;;;5097625;28;20459;-45
2022/10/28 08:21:05;;;;;;;3.23;2.70;;;18.90;78.60;;;;;;5097957;28;20422;-43
2022/10/28 08:23:31;;;;;;;6.77;2.97;;;19.00;78.70;;;;;;5115910;28;20696;-46
2022/10/28 08:25:57;;;;;;;8.03;3.40;;;19.00;78.60;;;;;;5116691;28;20541;-45
2022/10/28 08:28:23;;;;;;;4.40;2.57;;;19.10;78.50;;;;;;5117555;28;20803;-45
2022/10/28 08:30:49;;;;;;;5.70;2.53;;;19.20;78.50;;;;;;5117000;28;20422;-43
2022/10/28 08:33:15;;;;;;;10.07;3.37;;;19.30;78.50;;;;;;5115887;28;20179;-46
2022/10/28 08:35:41;;;;;;;4.03;2.37;;;19.40;78.50;;;;;;5116372;28;20973;-44
2022/10/28 08:38:07;;;;;;;6.27;3.00;;;19.50;78.30;;;;;;5117091;28;20418;-44
2022/10/28 08:40:51;;;;;;;5.10;3.10;;;19.60;78.20;;;;;;5114325;28;20490;-45
2022/10/28 08:43:25;;;;;;;8.53;3.40;;;19.70;78.70;;;;;;5096202;28;20480;-46
2022/10/28 08:46:07;;;;;;;7.00;2.70;;;19.90;77.70;;;;;;5115520;28;20680;-44
2022/10/28 08:48:33;;;;;;;7.67;3.20;;;20.00;77.20;;;;;;5095675;28;20529;-44
2022/10/28 08:51:17;;;;;;;8.13;3.70;;;20.10;76.70;;;;;;5116613;28;20867;-44
2022/10/28 08:53:47;;;;;;;5.70;2.50;;;20.30;76.10;;;;;;5115016;28;20419;-45
2022/10/28 08:56:36;;;;;;;5.47;2.33;;;20.50;75.30;;;;;;5072608;28;20914;-44
2022/10/28 08:59:05;;;;;;;5.53;2.77;;;20.60;74.80;;;;;;5076647;28;20432;-43
2022/10/28 09:01:53;;;;;;;4.40;3.00;;;20.80;74.10;;;;;;5095518;28;20414;-47
2022/10/28 09:04:25;;;;;;;4.27;2.40;;;21.00;73.40;;;;;;5093100;28;20575;-45
2022/10/28 09:06:51;;;;;;;3.87;2.80;;;21.10;72.80;;;;;;5093733;28;20421;-44
2022/10/28 09:09:20;;;;;;;4.33;2.40;;;21.30;72.40;;;;;;5092273;28;20424;-44
2022/10/28 09:12:01;;;;;;;6.13;2.67;;;21.40;71.90;;;;;;5092930;28;20422;-44
2022/10/28 09:14:47;;;;;;;6.67;3.43;;;21.60;71.30;;;;;;5092006;28;20419;-44
2022/10/28 09:17:44;;;;;;;3.90;2.93;;;21.80;70.90;;;;;;5095590;28;20887;-45
2022/10/28 09:20:19;;;;;;;5.43;2.70;;;22.00;70.30;;;;;;5099599;28;20425;-46
2022/10/28 09:22:57;;;;;;;5.03;3.53;;;22.10;69.50;;;;;;5100565;28;20421;-45
2022/10/28 09:25:54;;;;;;;5.40;3.10;;;22.20;69.00;;;;;;5099055;28;20411;-45
2022/10/28 09:28:33;;;;;;;7.50;3.60;;;22.20;68.70;;;;;;5096602;28;20487;-43
2022/10/28 09:31:40;;;;;;;5.70;2.87;;;22.30;68.60;;;;;;5099022;28;20409;-46
2022/10/28 09:34:18;;;;;;;4.63;2.93;;;22.30;68.30;;;;;;5054437;28;20414;-44
2022/10/28 09:36:48;;;;;;;9.17;3.43;;;22.40;67.40;;;;;;5098847;28;20801;-47
2022/10/28 09:39:21;;;;;;;6.73;2.77;;;22.70;67.20;;;;;;5096271;28;20425;-44
2022/10/28 09:41:48;;;;;;;4.03;2.50;;;23.10;66.40;;;;;;5098894;28;20451;-45
2022/10/28 09:44:22;;;;;;;4.97;3.00;;;23.40;65.30;;;;;;5081315;28;20433;-46
2022/10/28 09:46:50;;;;;;;7.50;2.90;;;24.00;64.30;;;;;;5097932;28;20431;-47
2022/10/28 09:49:21;;;;;;;7.63;3.30;;;24.70;63.00;;;;;;5100004;28;20427;-45
2022/10/28 09:51:53;;;;;;;5.10;3.07;;;25.20;61.50;;;;;;5097291;28;20424;-44
2022/10/28 09:54:21;;;;;;;4.77;3.37;;;25.70;60.00;;;;;;5094757;28;20417;-45
2022/10/28 09:56:46;;;;;;;5.10;2.83;;;26.00;58.80;;;;;;5098077;28;20469;-47
2022/10/28 09:59:13;;;;;;;4.90;3.03;;;26.30;58.40;;;;;;5099010;28;20487;-46
2022/10/28 10:01:46;;;;;;;7.37;3.63;;;26.60;57.70;;;;;;5095096;28;20585;-45
2022/10/28 10:04:21;;;;;;;5.63;3.23;;;27.00;57.10;;;;;;5098239;28;20434;-47
2022/10/28 10:06:59;;;;;;;6.43;2.73;;;27.20;56.20;;;;;;5093743;28;20439;-47
2022/10/28 10:09:27;;;;;;;5.60;3.33;;;27.20;55.40;;;;;;5094903;28;20533;-45
2022/10/28 10:11:56;;;;;;;3.70;2.63;;;27.20;54.30;;;;;;5096437;28;20939;-45
2022/10/28 10:14:30;;;;;;;7.93;3.10;;;27.10;53.90;;;;;;5095716;28;20407;-47
2022/10/28 10:17:05;;;;;;;3.80;2.67;;;27.00;53.70;;;;;;5099507;28;20883;-46
2022/10/28 10:20:00;;;;;;;5.23;2.70;;;26.90;53.50;;;;;;5098540;28;20730;-45
2022/10/28 10:22:33;;;;;;;5.57;2.83;;;26.80;53.40;;;;;;5097174;28;20423;-46
2022/10/28 10:25:28;;;;;;;9.50;3.13;;;26.80;53.30;;;;;;5096885;28;20414;-46
2022/10/28 10:27:59;;;;;;;3.87;2.43;;;26.80;52.70;;;;;;5073249;28;20413;-46
2022/10/28 10:30:31;;;;;;;8.33;3.60;;;26.80;52.20;;;;;;5055997;28;20415;-46
2022/10/28 10:32:57;;;;;;;7.43;3.13;;;26.70;51.50;;;;;;5072219;28;20866;-48
2022/10/28 10:35:26;;;;;;;5.53;2.90;;;26.70;51.50;;;;;;5074833;28;20407;-45
2022/10/28 10:37:52;;;;;;;4.07;2.53;;;26.60;51.10;;;;;;5075121;28;20443;-45
2022/10/28 10:40:38;;;;;;;5.87;3.00;;;26.50;51.20;;;;;;5074508;28;20700;-45
2022/10/28 10:43:19;;;;;;;4.13;2.40;;;26.40;51.00;;;;;;5060188;28;20441;-47
2022/10/28 10:45:52;;;;;;;7.50;3.00;;;26.20;51.20;;;;;;5074767;28;20434;-47
2022/10/28 10:48:21;;;;;;;9.90;3.27;;;26.10;51.40;;;;;;5073657;28;20736;-47
2022/10/28 10:50:48;;;;;;;4.97;2.73;;;26.10;51.60;;;;;;5075137;28;20484;-45
2022/10/28 10:53:33;;;;;;;6.07;2.73;;;26.20;51.40;;;;;;5058332;28;20458;-46
2022/10/28 10:56:10;;;;;;;6.60;3.10;;;26.40;51.20;;;;;;5074464;28;20939;-45
2022/10/28 10:58:48;;;;;;;6.60;3.07;;;26.70;51.10;;;;;;5074312;28;20390;-44
2022/10/28 11:01:39;;;;;;;7.03;3.43;;;27.10;50.90;;;;;;5073936;28;20427;-45
2022/10/28 11:04:14;;;;;;;7.43;2.87;;;27.50;50.60;;;;;;5074344;28;20426;-47
2022/10/28 11:06:43;;;;;;;4.87;3.13;;;27.90;50.10;;;;;;5042338;28;20953;-45
2022/10/28 11:09:30;;;;;;;6.07;2.87;;;28.40;49.70;;;;;;5074622;28;20417;-44
2022/10/28 11:11:58;;;;;;;5.30;3.17;;;28.70;49.20;;;;;;5072455;28;20439;-48
2022/10/28 11:14:30;;;;;;;6.27;2.40;;;28.80;48.40;;;;;;5073407;28;20387;-44
2022/10/28 11:17:00;;;;;;;3.97;2.40;;;28.70;48.00;;;;;;5069216;28;20483;-43
2022/10/28 11:19:30;;;;;;;6.93;3.63;;;28.50;48.10;;;;;;5073303;28;20469;-44
2022/10/28 11:22:19;;;;;;;4.73;3.00;;;28.30;48.30;;;;;;5070714;28;20845;-45
2022/10/28 11:25:10;;;;;;;5.70;2.83;;;28.20;48.60;;;;;;5070335;28;20578;-45
2022/10/28 11:27:50;;;;;;;4.20;2.93;;;28.40;48.70;;;;;;5070990;28;20778;-45
2022/10/28 11:30:19;;;;;;;5.10;2.60;;;28.70;48.50;;;;;;5056160;28;20735;-43
2022/10/28 11:32:51;;;;;;;5.23;3.30;;;28.70;48.20;;;;;;5037769;28;20478;-45
2022/10/28 11:35:25;;;;;;;4.23;2.60;;;28.50;47.80;;;;;;5053774;28;20491;-44
2022/10/28 11:38:32;;;;;;;3.63;2.77;;;28.40;48.00;;;;;;5080440;28;20430;-47
2022/10/28 11:41:10;;;;;;;5.07;2.93;;;28.30;48.10;;;;;;5050604;28;20409;-45
2022/10/28 11:43:51;;;;;;;4.40;2.67;;;28.20;48.30;;;;;;5046931;28;20407;-43
2022/10/28 11:46:43;;;;;;;8.10;3.03;;;28.20;48.60;;;;;;5078240;28;20403;-43
2022/10/28 11:49:24;;;;;;;4.83;2.80;;;28.10;48.60;;;;;;5093520;28;21010;-46
2022/10/28 11:51:58;;;;;;;5.23;2.47;;;28.00;48.50;;;;;;5092070;28;20504;-43
2022/10/28 11:54:34;;;;;;;4.90;2.80;;;27.90;48.10;;;;;;5094014;28;20526;-43
2022/10/28 11:57:07;;;;;;;4.20;2.73;;;27.80;48.20;;;;;;5072881;28;20458;-45
2022/10/28 12:00:27;;;;;;;6.10;3.37;;;27.70;48.50;;;;;;5070570;28;20533;-45
2022/10/28 12:03:11;;;;;;;6.20;2.67;;;27.50;48.50;;;;;;5007457;28;20424;-45
2022/10/28 12:05:43;;;;;;;5.20;3.13;;;27.40;48.60;;;;;;5084132;28;20409;-48
2022/10/28 12:08:34;;;;;;;8.77;3.37;;;27.30;48.60;;;;;;5085104;28;20448;-46
2022/10/28 12:11:05;;;;;;;3.97;2.90;;;27.40;48.60;;;;;;5090591;28;20540;-44
2022/10/28 12:13:40;;;;;;;6.67;3.00;;;27.50;48.50;;;;;;5092496;28;20844;-46
2022/10/28 12:16:17;;;;;;;4.93;3.20;;;27.70;48.20;;;;;;5095066;28;20505;-43
2022/10/28 12:19:02;;;;;;;4.50;2.90;;;28.30;48.00;;;;;;5091355;28;20789;-44
2022/10/28 12:21:35;;;;;;;4.47;2.93;;;29.50;47.30;;;;;;5093024;28;20840;-46
2022/10/28 12:24:04;;;;;;;6.60;3.43;;;30.80;46.30;;;;;;5088911;28;20532;-46
2022/10/28 12:26:47;;;;;;;8.33;3.43;;;32.00;44.90;;;;;;5089692;28;20711;-45
2022/10/28 12:29:22;;;;;;;4.07;2.87;;;33.30;43.30;;;;;;5092446;28;20411;-45
2022/10/28 12:32:05;;;;;;;5.90;3.47;;;34.60;41.60;;;;;;5092101;28;20460;-47
2022/10/28 12:34:34;;;;;;;8.30;3.30;;;35.90;40.50;;;;;;5088727;28;20409;-46
2022/10/28 12:37:13;;;;;;;7.00;3.43;;;36.60;39.40;;;;;;5095243;28;20459;-48
2022/10/28 12:39:44;;;;;;;5.50;3.13;;;37.30;38.00;;;;;;5091725;28;20414;-46
2022/10/28 12:42:24;;;;;;;5.80;2.90;;;38.30;37.20;;;;;;5090629;28;20439;-46
2022/10/28 12:44:51;;;;;;;7.87;3.67;;;39.30;36.10;;;;;;5091783;28;20442;-46
2022/10/28 12:47:33;;;;;;;4.80;3.10;;;40.20;34.90;;;;;;5092073;28;20429;-46
2022/10/28 12:50:09;;;;;;;5.13;3.00;;;40.90;34.00;;;;;;5092934;28;20447;-46
2022/10/28 12:52:59;;;;;;;6.73;3.23;;;41.50;32.70;;;;;;5090598;28;20498;-43
2022/10/28 12:55:49;;;;;;;9.73;3.47;;;41.70;32.10;;;;;;5084252;28;20446;-46
2022/10/28 12:58:31;;;;;;;4.30;2.80;;;41.70;31.80;;;;;;5110745;28;20428;-45
2022/10/28 13:01:01;;;;;;;4.53;3.00;;;41.10;31.50;;;;;;5091191;28;20852;-44
2022/10/28 13:03:27;;;;;;;7.47;3.10;;;40.60;31.70;;;;;;5091476;28;20427;-45
2022/10/28 13:05:56;;;;;;;4.40;2.90;;;40.70;31.80;;;;;;5092923;28;20427;-48